This is the latest recevied weather packets stored in our database for station/object SV2JU-2. If no packets are shown the sender has not sent any weather packets the latest 10 day(s).
| Time | Temp. | Humidity | Pressure | Rain* | Wind** | Luminosity | Snow |
|---|---|---|---|---|---|---|---|
| 1787827048 | 31.11° C | 21% | 1017 hPa | 0 mm | - | - | - |
| 1787826297 | 31.11° C | 22% | 1017 hPa | 0 mm | - | - | - |
| 1787825548 | 31.11° C | 22% | 1017 hPa | 0 mm | - | - | - |
| 1787824797 | 30.56° C | 22% | 1017 hPa | 0 mm | - | - | - |
| 1787823297 | 30.56° C | 23% | 1017 hPa | 0 mm | - | - | - |
| 1787822547 | 30.56° C | 24% | 1017 hPa | 0 mm | - | - | - |
| 1787821797 | 30.56° C | 24% | 1017 hPa | 0 mm | - | - | - |
| 1787821047 | 30.56° C | 24% | 1017 hPa | 0 mm | - | - | - |
| 1787820297 | 30.56° C | 24% | 1017 hPa | 0 mm | - | - | - |
| 1787818796 | 30.56° C | 24% | 1017 hPa | 0 mm | - | - | - |
| 1787818047 | 30.56° C | 24% | 1017 hPa | 0 mm | - | - | - |
| 1787817296 | 30.56° C | 23% | 1017 hPa | 0 mm | - | - | - |
| 1787816547 | 30.56° C | 24% | 1018 hPa | 0 mm | - | - | - |
| 1787815796 | 31.11° C | 24% | 1018 hPa | 0 mm | - | - | - |
| 1787815047 | 31.11° C | 24% | 1018 hPa | 0 mm | - | - | - |
| 1787814296 | 31.11° C | 24% | 1018 hPa | 0 mm | - | - | - |
| 1787813547 | 31.67° C | 26% | 1018 hPa | 0 mm | - | - | - |
| 1787812796 | 31.11° C | 28% | 1018 hPa | 0 mm | - | - | - |
| 1787812047 | 30° C | 30% | 1017 hPa | 0 mm | - | - | - |
| 1787811296 | 28.89° C | 35% | 1017 hPa | 0 mm | - | - | - |
| 1787810547 | 27.78° C | 38% | 1017 hPa | 0 mm | - | - | - |
| 1787809796 | 27.22° C | 39% | 1017 hPa | 0 mm | - | - | - |
| 1787809046 | 26.67° C | 42% | 1017 hPa | 0 mm | - | - | - |
| 1787808296 | 26.11° C | 43% | 1017 hPa | 0 mm | - | - | - |
| 1787807546 | 25.56° C | 46% | 1017 hPa | 0 mm | - | - | - |
* Rain latest hour (hover to see other rain measurements)
** Current wind speed in m/s (hover to see current wind gust speed)